createdAt,value
2023-02-02T00:01:21.178Z,101738.31
2023-02-02T00:03:50.715Z,101741.03
2023-02-02T00:06:20.305Z,101747.97
2023-02-02T00:08:48.458Z,101752.38
2023-02-02T00:11:16.826Z,101759.41
2023-02-02T00:13:44.750Z,101754.16
2023-02-02T00:16:34.628Z,101744.78
2023-02-02T00:19:03.708Z,101752.47
2023-02-02T00:21:33.099Z,101751.53
2023-02-02T00:24:01.570Z,101754.16
2023-02-02T00:26:29.634Z,101760.56
2023-02-02T00:28:57.638Z,101745.63
2023-02-02T00:31:25.509Z,101743.81
2023-02-02T00:33:53.235Z,101738.41
2023-02-02T00:36:21.901Z,101741.97
2023-02-02T00:38:52.790Z,101748.13
2023-02-02T00:41:20.891Z,101743.81
2023-02-02T00:44:09.275Z,101731.75
2023-02-02T00:46:39.312Z,101742.34
2023-02-02T00:49:07.128Z,101750.38
2023-02-02T00:51:34.926Z,101742.53
2023-02-02T00:54:04.225Z,101751.34
2023-02-02T00:56:32.132Z,101750.66
2023-02-02T00:58:59.918Z,101744.59
2023-02-02T01:01:27.820Z,101736.72
2023-02-02T01:03:55.503Z,101739.44
2023-02-02T01:06:23.311Z,101741.28
2023-02-02T01:08:51.104Z,101750.16
2023-02-02T01:11:20.475Z,101745.59
2023-02-02T01:13:48.182Z,101752.63
2023-02-02T01:16:16.085Z,101750.00
2023-02-02T01:18:43.832Z,101746.53
2023-02-02T01:21:13.066Z,101745.59
2023-02-02T01:23:41.636Z,101752.28
2023-02-02T01:26:10.631Z,101755.66
2023-02-02T01:28:40.191Z,101738.94
2023-02-02T01:31:09.729Z,101736.16
2023-02-02T01:33:37.491Z,101740.34
2023-02-02T01:36:08.036Z,101747.22
2023-02-02T01:38:35.967Z,101741.78
2023-02-02T01:41:05.131Z,101757.41
2023-02-02T01:43:53.340Z,101759.13
2023-02-02T01:46:22.120Z,101761.66
2023-02-02T01:48:52.276Z,101763.28
2023-02-02T01:51:22.733Z,101755.28
2023-02-02T01:53:52.524Z,101753.41
2023-02-02T01:56:26.170Z,101745.63
2023-02-02T01:58:55.365Z,101748.00
2023-02-02T02:01:23.089Z,101765.53
2023-02-02T02:03:50.919Z,101760.22
2023-02-02T02:06:20.236Z,101767.94
2023-02-02T02:08:52.446Z,101772.28
2023-02-02T02:11:20.429Z,101763.47
2023-02-02T02:14:05.951Z,101771.25
2023-02-02T02:16:44.163Z,101778.16
2023-02-02T02:19:22.372Z,101775.53
2023-02-02T02:22:14.995Z,101762.53
2023-02-02T02:25:32.915Z,101765.78
2023-02-02T02:28:21.865Z,101758.84
2023-02-02T02:31:09.437Z,101754.34
2023-02-02T02:33:42.342Z,101752.66
2023-02-02T02:36:18.262Z,101759.59
2023-02-02T02:38:51.754Z,101752.50
2023-02-02T02:41:22.619Z,101749.09
2023-02-02T02:43:54.046Z,101758.59
2023-02-02T02:46:22.025Z,101760.38
2023-02-02T02:48:51.308Z,101762.88
2023-02-02T02:51:45.469Z,101757.44
2023-02-02T02:54:14.081Z,101756.50
2023-02-02T02:56:50.233Z,101745.16
2023-02-02T02:59:23.670Z,101749.47
2023-02-02T03:01:55.871Z,101744.47
2023-02-02T03:04:29.892Z,101752.06
2023-02-02T03:07:01.516Z,101753.75
2023-02-02T03:09:34.834Z,101746.00
2023-02-02T03:12:02.679Z,101751.88
2023-02-02T03:14:30.395Z,101764.09
2023-02-02T03:16:58.141Z,101759.78
2023-02-02T03:19:27.456Z,101757.13
2023-02-02T03:21:55.189Z,101758.91
2023-02-02T03:24:22.962Z,101765.09
2023-02-02T03:26:50.917Z,101764.09
2023-02-02T03:29:19.052Z,101754.69
2023-02-02T03:31:47.722Z,101770.19
2023-02-02T03:34:15.393Z,101774.59
2023-02-02T03:36:44.523Z,101771.03
2023-02-02T03:39:12.279Z,101774.47
2023-02-02T03:41:39.967Z,101778.16
2023-02-02T03:44:07.793Z,101771.03
2023-02-02T03:46:35.583Z,101761.56
2023-02-02T03:49:03.402Z,101771.22
2023-02-02T03:51:31.077Z,101766.09
2023-02-02T03:54:00.199Z,101753.88
2023-02-02T03:56:27.969Z,101757.31
2023-02-02T03:58:55.722Z,101759.31
2023-02-02T04:01:29.400Z,101759.00
2023-02-02T04:03:57.591Z,101759.13
2023-02-02T04:06:25.759Z,101753.13
2023-02-02T04:08:53.895Z,101759.31
2023-02-02T04:11:23.025Z,101761.16
2023-02-02T04:13:50.735Z,101755.06
2023-02-02T04:16:18.466Z,101753.28
2023-02-02T04:18:46.163Z,101749.00
2023-02-02T04:21:13.884Z,101754.22
2023-02-02T04:23:41.618Z,101750.66
2023-02-02T04:26:11.506Z,101756.84
2023-02-02T04:28:40.584Z,101749.84
2023-02-02T04:31:08.405Z,101747.56
2023-02-02T04:33:36.563Z,101759.91
2023-02-02T04:36:04.997Z,101754.66
2023-02-02T04:38:32.920Z,101756.34
2023-02-02T04:41:00.619Z,101749.25
2023-02-02T04:43:28.475Z,101751.88
2023-02-02T04:45:58.253Z,101755.44
2023-02-02T04:48:25.977Z,101752.81
2023-02-02T04:50:59.756Z,101754.50
2023-02-02T04:53:27.419Z,101753.59
2023-02-02T04:55:55.051Z,101744.59
2023-02-02T04:58:23.023Z,101756.84
2023-02-02T05:00:50.736Z,101754.22
2023-02-02T05:03:19.869Z,101747.31
2023-02-02T05:05:48.598Z,101744.69
2023-02-02T05:08:16.255Z,101750.78
2023-02-02T05:10:44.036Z,101752.66
2023-02-02T05:13:11.779Z,101757.06
2023-02-02T05:15:39.508Z,101749.19
2023-02-02T05:18:07.237Z,101741.47
2023-02-02T05:20:36.403Z,101747.56
2023-02-02T05:23:04.124Z,101749.25
2023-02-02T05:25:31.804Z,101760.63
2023-02-02T05:27:59.860Z,101751.97
2023-02-02T05:30:27.531Z,101760.44
2023-02-02T05:32:55.173Z,101765.63
2023-02-02T05:35:23.222Z,101756.84
2023-02-02T05:37:52.706Z,101762.78
2023-02-02T05:40:20.396Z,101765.41
2023-02-02T05:42:49.579Z,101760.16
2023-02-02T05:45:17.404Z,101767.09
2023-02-02T05:47:45.101Z,101761.94
2023-02-02T05:50:12.836Z,101773.13
2023-02-02T05:52:41.695Z,101782.66
2023-02-02T05:55:11.409Z,101773.84
2023-02-02T05:57:39.178Z,101765.97
2023-02-02T06:00:08.422Z,101772.91
2023-02-02T06:02:36.103Z,101771.97
2023-02-02T06:05:03.807Z,101778.84
2023-02-02T06:07:31.544Z,101773.47
2023-02-02T06:09:59.399Z,101776.00
2023-02-02T06:12:28.526Z,101776.84
2023-02-02T06:14:56.206Z,101782.94
2023-02-02T06:17:23.902Z,101773.28
2023-02-02T06:19:51.647Z,101777.69
2023-02-02T06:22:19.368Z,101778.63
2023-02-02T06:24:47.005Z,101778.53
2023-02-02T06:27:14.771Z,101781.03
2023-02-02T06:29:43.872Z,101778.53
2023-02-02T06:32:11.741Z,101782.03
2023-02-02T06:34:39.500Z,101782.94
2023-02-02T06:37:07.740Z,101770.56
2023-02-02T06:39:35.470Z,101789.78
2023-02-02T06:42:19.276Z,101793.09
2023-02-02T06:44:50.111Z,101786.03
2023-02-02T06:47:18.136Z,101798.25
2023-02-02T06:49:45.882Z,101808.78
2023-02-02T06:52:13.559Z,101798.25
2023-02-02T06:54:41.255Z,101805.28
2023-02-02T06:57:09.321Z,101805.38
2023-02-02T06:59:37.073Z,101803.47
2023-02-02T07:02:06.179Z,101798.41
2023-02-02T07:04:33.919Z,101812.19
2023-02-02T07:07:01.649Z,101815.59
2023-02-02T07:09:29.411Z,101811.34
2023-02-02T07:11:59.016Z,101812.03
2023-02-02T07:14:27.154Z,101820.75
2023-02-02T07:16:54.964Z,101818.13
2023-02-02T07:19:24.169Z,101815.41
2023-02-02T07:21:51.832Z,101825.03
2023-02-02T07:24:19.560Z,101823.28
2023-02-02T07:26:47.229Z,101820.56
2023-02-02T07:29:15.292Z,101824.06
2023-02-02T07:31:43.276Z,101829.41
2023-02-02T07:34:10.994Z,101837.28
2023-02-02T07:36:40.032Z,101832.78
2023-02-02T07:39:07.961Z,101838.97
2023-02-02T07:41:37.057Z,101837.19
2023-02-02T07:44:05.855Z,101837.28
2023-02-02T07:46:33.752Z,101845.00
2023-02-02T07:49:01.644Z,101849.25
2023-02-02T07:51:29.333Z,101839.56
2023-02-02T07:53:59.549Z,101857.13
2023-02-02T07:56:28.785Z,101859.75
2023-02-02T07:58:57.480Z,101844.25
2023-02-02T08:01:26.359Z,101860.63
2023-02-02T08:03:55.435Z,101866.72
2023-02-02T08:06:25.983Z,101864.03
2023-02-02T08:08:53.624Z,101864.91
2023-02-02T08:11:23.891Z,101863.19
2023-02-02T08:13:52.830Z,101871.00
2023-02-02T08:16:21.269Z,101867.44
2023-02-02T08:18:49.197Z,101873.72
2023-02-02T08:21:17.558Z,101885.84
